sensor_id;sensor_type;location;lat;lon;timestamp;P1;durP1;ratioP1;P2;durP2;ratioP2
62584;SDS011;48643;51.670;5.808;2023-07-13T00:01:53;9.32;;;2.30;;
62584;SDS011;48643;51.670;5.808;2023-07-13T00:04:21;8.20;;;2.17;;
62584;SDS011;48643;51.670;5.808;2023-07-13T00:06:49;5.68;;;2.08;;
62584;SDS011;48643;51.670;5.808;2023-07-13T00:09:17;6.93;;;2.25;;
62584;SDS011;48643;51.670;5.808;2023-07-13T00:11:44;5.38;;;2.00;;
62584;SDS011;48643;51.670;5.808;2023-07-13T00:14:13;6.60;;;2.25;;
62584;SDS011;48643;51.670;5.808;2023-07-13T00:16:42;6.10;;;2.30;;
62584;SDS011;48643;51.670;5.808;2023-07-13T00:19:12;7.15;;;2.00;;
62584;SDS011;48643;51.670;5.808;2023-07-13T00:21:39;5.80;;;2.10;;
62584;SDS011;48643;51.670;5.808;2023-07-13T00:24:14;7.45;;;2.05;;
62584;SDS011;48643;51.670;5.808;2023-07-13T00:26:43;6.00;;;1.95;;
62584;SDS011;48643;51.670;5.808;2023-07-13T00:29:12;3.30;;;1.80;;
62584;SDS011;48643;51.670;5.808;2023-07-13T00:31:40;6.22;;;2.00;;
62584;SDS011;48643;51.670;5.808;2023-07-13T00:34:07;5.25;;;2.25;;
62584;SDS011;48643;51.670;5.808;2023-07-13T00:36:34;5.22;;;2.03;;
62584;SDS011;48643;51.670;5.808;2023-07-13T00:39:01;5.00;;;1.95;;
62584;SDS011;48643;51.670;5.808;2023-07-13T00:41:29;7.47;;;2.30;;
62584;SDS011;48643;51.670;5.808;2023-07-13T00:43:57;4.82;;;2.00;;
62584;SDS011;48643;51.670;5.808;2023-07-13T00:46:31;4.35;;;2.10;;
62584;SDS011;48643;51.670;5.808;2023-07-13T00:49:02;5.30;;;1.85;;
62584;SDS011;48643;51.670;5.808;2023-07-13T00:51:36;4.72;;;2.05;;
62584;SDS011;48643;51.670;5.808;2023-07-13T00:54:14;5.13;;;1.85;;
62584;SDS011;48643;51.670;5.808;2023-07-13T00:56:44;5.40;;;2.08;;
62584;SDS011;48643;51.670;5.808;2023-07-13T00:59:12;5.45;;;1.92;;
62584;SDS011;48643;51.670;5.808;2023-07-13T01:01:40;5.22;;;2.20;;
62584;SDS011;48643;51.670;5.808;2023-07-13T01:04:07;6.47;;;2.10;;
62584;SDS011;48643;51.670;5.808;2023-07-13T01:06:37;5.60;;;1.83;;
62584;SDS011;48643;51.670;5.808;2023-07-13T01:09:06;5.10;;;2.03;;
62584;SDS011;48643;51.670;5.808;2023-07-13T01:11:34;3.67;;;1.90;;
62584;SDS011;48643;51.670;5.808;2023-07-13T01:14:02;5.78;;;2.15;;
62584;SDS011;48643;51.670;5.808;2023-07-13T01:16:32;3.80;;;1.80;;
62584;SDS011;48643;51.670;5.808;2023-07-13T01:19:00;6.07;;;2.00;;
62584;SDS011;48643;51.670;5.808;2023-07-13T01:21:29;4.57;;;1.92;;
62584;SDS011;48643;51.670;5.808;2023-07-13T01:23:58;4.60;;;1.98;;
62584;SDS011;48643;51.670;5.808;2023-07-13T01:26:25;7.95;;;2.10;;
62584;SDS011;48643;51.670;5.808;2023-07-13T01:28:53;5.40;;;2.00;;
62584;SDS011;48643;51.670;5.808;2023-07-13T01:31:22;6.93;;;1.95;;
62584;SDS011;48643;51.670;5.808;2023-07-13T01:33:50;6.95;;;2.20;;
62584;SDS011;48643;51.670;5.808;2023-07-13T01:36:19;3.65;;;1.90;;
62584;SDS011;48643;51.670;5.808;2023-07-13T01:38:47;5.80;;;1.80;;
62584;SDS011;48643;51.670;5.808;2023-07-13T01:41:14;4.93;;;1.95;;
62584;SDS011;48643;51.670;5.808;2023-07-13T01:43:41;4.45;;;1.92;;
62584;SDS011;48643;51.670;5.808;2023-07-13T01:46:08;4.82;;;1.88;;
62584;SDS011;48643;51.670;5.808;2023-07-13T01:48:42;5.72;;;1.83;;
62584;SDS011;48643;51.670;5.808;2023-07-13T01:51:09;3.35;;;1.80;;
62584;SDS011;48643;51.670;5.808;2023-07-13T01:53:36;5.80;;;1.90;;
62584;SDS011;48643;51.670;5.808;2023-07-13T01:56:03;7.47;;;2.00;;
62584;SDS011;48643;51.670;5.808;2023-07-13T01:58:30;5.95;;;2.00;;
62584;SDS011;48643;51.670;5.808;2023-07-13T02:00:56;4.55;;;1.90;;
62584;SDS011;48643;51.670;5.808;2023-07-13T02:03:23;4.05;;;2.00;;
62584;SDS011;48643;51.670;5.808;2023-07-13T02:05:50;3.72;;;1.70;;
62584;SDS011;48643;51.670;5.808;2023-07-13T02:08:17;4.03;;;1.95;;
62584;SDS011;48643;51.670;5.808;2023-07-13T02:10:45;4.30;;;2.03;;
62584;SDS011;48643;51.670;5.808;2023-07-13T02:13:12;3.17;;;1.90;;
62584;SDS011;48643;51.670;5.808;2023-07-13T02:15:39;5.80;;;2.20;;
62584;SDS011;48643;51.670;5.808;2023-07-13T02:18:07;3.97;;;2.03;;
62584;SDS011;48643;51.670;5.808;2023-07-13T02:20:34;5.05;;;2.00;;
62584;SDS011;48643;51.670;5.808;2023-07-13T02:23:01;6.22;;;1.92;;
62584;SDS011;48643;51.670;5.808;2023-07-13T02:25:29;5.32;;;1.90;;
62584;SDS011;48643;51.670;5.808;2023-07-13T02:27:56;3.72;;;1.90;;
62584;SDS011;48643;51.670;5.808;2023-07-13T02:30:23;6.35;;;2.20;;
62584;SDS011;48643;51.670;5.808;2023-07-13T02:32:53;4.20;;;2.05;;
62584;SDS011;48643;51.670;5.808;2023-07-13T02:35:20;4.70;;;1.83;;
62584;SDS011;48643;51.670;5.808;2023-07-13T02:37:47;5.03;;;2.00;;
62584;SDS011;48643;51.670;5.808;2023-07-13T02:40:14;5.07;;;1.80;;
62584;SDS011;48643;51.670;5.808;2023-07-13T02:42:41;5.65;;;2.10;;
62584;SDS011;48643;51.670;5.808;2023-07-13T02:45:08;5.47;;;2.08;;
62584;SDS011;48643;51.670;5.808;2023-07-13T02:47:36;3.45;;;1.70;;
62584;SDS011;48643;51.670;5.808;2023-07-13T02:50:03;4.13;;;1.80;;
62584;SDS011;48643;51.670;5.808;2023-07-13T02:52:31;5.07;;;2.03;;
62584;SDS011;48643;51.670;5.808;2023-07-13T02:54:58;5.40;;;1.88;;
62584;SDS011;48643;51.670;5.808;2023-07-13T02:57:25;5.40;;;2.03;;
62584;SDS011;48643;51.670;5.808;2023-07-13T02:59:53;3.75;;;1.80;;
62584;SDS011;48643;51.670;5.808;2023-07-13T03:02:21;3.47;;;1.80;;
62584;SDS011;48643;51.670;5.808;2023-07-13T03:04:48;5.38;;;2.00;;
62584;SDS011;48643;51.670;5.808;2023-07-13T03:07:15;4.13;;;1.80;;
62584;SDS011;48643;51.670;5.808;2023-07-13T03:09:45;4.78;;;2.03;;
62584;SDS011;48643;51.670;5.808;2023-07-13T03:12:12;4.25;;;1.90;;
62584;SDS011;48643;51.670;5.808;2023-07-13T03:14:39;4.63;;;2.00;;
62584;SDS011;48643;51.670;5.808;2023-07-13T03:17:07;4.30;;;1.85;;
62584;SDS011;48643;51.670;5.808;2023-07-13T03:19:38;7.57;;;2.15;;
62584;SDS011;48643;51.670;5.808;2023-07-13T03:22:05;7.07;;;2.25;;
62584;SDS011;48643;51.670;5.808;2023-07-13T03:24:33;4.55;;;1.92;;
62584;SDS011;48643;51.670;5.808;2023-07-13T03:27:05;4.45;;;1.85;;
62584;SDS011;48643;51.670;5.808;2023-07-13T03:29:36;5.20;;;2.10;;
62584;SDS011;48643;51.670;5.808;2023-07-13T03:32:04;7.28;;;1.90;;
62584;SDS011;48643;51.670;5.808;2023-07-13T03:34:31;7.60;;;2.03;;
62584;SDS011;48643;51.670;5.808;2023-07-13T03:36:59;8.18;;;2.03;;
62584;SDS011;48643;51.670;5.808;2023-07-13T03:39:26;7.78;;;2.10;;
62584;SDS011;48643;51.670;5.808;2023-07-13T03:41:55;3.90;;;1.95;;
62584;SDS011;48643;51.670;5.808;2023-07-13T03:44:22;3.92;;;1.80;;
62584;SDS011;48643;51.670;5.808;2023-07-13T03:46:53;4.63;;;1.90;;
62584;SDS011;48643;51.670;5.808;2023-07-13T03:49:20;6.40;;;2.10;;
62584;SDS011;48643;51.670;5.808;2023-07-13T03:51:48;4.88;;;1.98;;
62584;SDS011;48643;51.670;5.808;2023-07-13T03:54:19;5.95;;;1.98;;
62584;SDS011;48643;51.670;5.808;2023-07-13T03:56:46;6.40;;;2.20;;
62584;SDS011;48643;51.670;5.808;2023-07-13T03:59:14;5.47;;;2.00;;
62584;SDS011;48643;51.670;5.808;2023-07-13T04:01:42;4.45;;;2.00;;
62584;SDS011;48643;51.670;5.808;2023-07-13T04:04:11;4.38;;;1.80;;
62584;SDS011;48643;51.670;5.808;2023-07-13T04:06:38;7.05;;;2.30;;
62584;SDS011;48643;51.670;5.808;2023-07-13T04:09:05;5.28;;;2.08;;
62584;SDS011;48643;51.670;5.808;2023-07-13T04:11:33;3.97;;;1.95;;
62584;SDS011;48643;51.670;5.808;2023-07-13T04:14:02;6.25;;;2.00;;
62584;SDS011;48643;51.670;5.808;2023-07-13T04:16:29;6.55;;;2.20;;
62584;SDS011;48643;51.670;5.808;2023-07-13T04:18:56;7.13;;;2.13;;
62584;SDS011;48643;51.670;5.808;2023-07-13T04:21:28;4.55;;;1.85;;
62584;SDS011;48643;51.670;5.808;2023-07-13T04:23:56;5.63;;;2.13;;
62584;SDS011;48643;51.670;5.808;2023-07-13T04:26:23;4.28;;;2.10;;
62584;SDS011;48643;51.670;5.808;2023-07-13T04:28:51;4.90;;;1.90;;
62584;SDS011;48643;51.670;5.808;2023-07-13T04:31:18;4.28;;;1.98;;
62584;SDS011;48643;51.670;5.808;2023-07-13T04:33:45;5.60;;;2.13;;
62584;SDS011;48643;51.670;5.808;2023-07-13T04:36:14;5.07;;;1.90;;
62584;SDS011;48643;51.670;5.808;2023-07-13T04:38:42;5.78;;;2.10;;
62584;SDS011;48643;51.670;5.808;2023-07-13T04:41:08;4.53;;;1.90;;
62584;SDS011;48643;51.670;5.808;2023-07-13T04:43:35;5.15;;;2.13;;
62584;SDS011;48643;51.670;5.808;2023-07-13T04:46:03;4.75;;;2.00;;
62584;SDS011;48643;51.670;5.808;2023-07-13T04:50:59;8.63;;;2.40;;
62584;SDS011;48643;51.670;5.808;2023-07-13T04:53:26;6.93;;;2.33;;
62584;SDS011;48643;51.670;5.808;2023-07-13T04:55:53;6.72;;;1.83;;
62584;SDS011;48643;51.670;5.808;2023-07-13T04:58:20;6.90;;;2.10;;
62584;SDS011;48643;51.670;5.808;2023-07-13T05:00:48;3.92;;;1.90;;
62584;SDS011;48643;51.670;5.808;2023-07-13T05:03:15;4.70;;;2.08;;
62584;SDS011;48643;51.670;5.808;2023-07-13T05:05:42;3.50;;;1.88;;
62584;SDS011;48643;51.670;5.808;2023-07-13T05:08:09;6.00;;;1.92;;
62584;SDS011;48643;51.670;5.808;2023-07-13T05:10:36;4.45;;;1.70;;
62584;SDS011;48643;51.670;5.808;2023-07-13T05:13:03;6.65;;;2.15;;
62584;SDS011;48643;51.670;5.808;2023-07-13T05:15:30;5.18;;;2.05;;
62584;SDS011;48643;51.670;5.808;2023-07-13T05:17:57;5.40;;;2.30;;
62584;SDS011;48643;51.670;5.808;2023-07-13T05:20:24;6.82;;;2.25;;
62584;SDS011;48643;51.670;5.808;2023-07-13T05:22:51;7.70;;;2.47;;
62584;SDS011;48643;51.670;5.808;2023-07-13T05:25:18;5.63;;;2.20;;
62584;SDS011;48643;51.670;5.808;2023-07-13T05:27:45;9.18;;;2.40;;
62584;SDS011;48643;51.670;5.808;2023-07-13T05:30:13;5.40;;;2.40;;
62584;SDS011;48643;51.670;5.808;2023-07-13T05:32:40;6.18;;;2.20;;
62584;SDS011;48643;51.670;5.808;2023-07-13T05:35:07;6.78;;;2.58;;
62584;SDS011;48643;51.670;5.808;2023-07-13T05:37:35;4.95;;;2.30;;
62584;SDS011;48643;51.670;5.808;2023-07-13T05:40:03;6.53;;;2.50;;
62584;SDS011;48643;51.670;5.808;2023-07-13T05:42:30;6.97;;;2.50;;
62584;SDS011;48643;51.670;5.808;2023-07-13T05:44:57;7.35;;;2.60;;
62584;SDS011;48643;51.670;5.808;2023-07-13T05:47:24;8.98;;;2.88;;
62584;SDS011;48643;51.670;5.808;2023-07-13T05:49:51;6.18;;;2.70;;
62584;SDS011;48643;51.670;5.808;2023-07-13T05:52:18;8.35;;;2.60;;
62584;SDS011;48643;51.670;5.808;2023-07-13T05:54:45;5.80;;;2.60;;
62584;SDS011;48643;51.670;5.808;2023-07-13T05:57:12;6.80;;;2.55;;
62584;SDS011;48643;51.670;5.808;2023-07-13T05:59:38;6.65;;;3.15;;
62584;SDS011;48643;51.670;5.808;2023-07-13T06:02:07;7.07;;;3.00;;
62584;SDS011;48643;51.670;5.808;2023-07-13T06:04:36;8.77;;;3.47;;
62584;SDS011;48643;51.670;5.808;2023-07-13T06:07:03;22.00;;;8.80;;
62584;SDS011;48643;51.670;5.808;2023-07-13T06:09:30;22.35;;;9.32;;
62584;SDS011;48643;51.670;5.808;2023-07-13T06:11:57;26.70;;;9.70;;
62584;SDS011;48643;51.670;5.808;2023-07-13T06:14:24;28.83;;;10.25;;
62584;SDS011;48643;51.670;5.808;2023-07-13T06:16:51;31.75;;;9.63;;
62584;SDS011;48643;51.670;5.808;2023-07-13T06:19:18;25.45;;;9.55;;
62584;SDS011;48643;51.670;5.808;2023-07-13T06:21:45;26.98;;;9.45;;
62584;SDS011;48643;51.670;5.808;2023-07-13T06:24:12;33.88;;;9.88;;
62584;SDS011;48643;51.670;5.808;2023-07-13T06:26:41;22.70;;;8.43;;
62584;SDS011;48643;51.670;5.808;2023-07-13T06:29:08;26.08;;;9.23;;
62584;SDS011;48643;51.670;5.808;2023-07-13T06:31:35;21.55;;;8.93;;
62584;SDS011;48643;51.670;5.808;2023-07-13T06:34:02;31.70;;;9.77;;
62584;SDS011;48643;51.670;5.808;2023-07-13T06:36:29;27.65;;;9.10;;
62584;SDS011;48643;51.670;5.808;2023-07-13T06:38:55;25.30;;;9.50;;
62584;SDS011;48643;51.670;5.808;2023-07-13T06:41:22;26.60;;;8.95;;
62584;SDS011;48643;51.670;5.808;2023-07-13T06:43:52;25.77;;;9.43;;
62584;SDS011;48643;51.670;5.808;2023-07-13T06:46:20;27.20;;;9.85;;
62584;SDS011;48643;51.670;5.808;2023-07-13T06:48:48;29.63;;;10.73;;
62584;SDS011;48643;51.670;5.808;2023-07-13T06:51:15;26.80;;;9.27;;
62584;SDS011;48643;51.670;5.808;2023-07-13T06:53:42;26.33;;;9.48;;
62584;SDS011;48643;51.670;5.808;2023-07-13T06:56:10;25.30;;;9.43;;
62584;SDS011;48643;51.670;5.808;2023-07-13T06:58:37;26.05;;;9.45;;
62584;SDS011;48643;51.670;5.808;2023-07-13T07:01:04;27.23;;;8.98;;
62584;SDS011;48643;51.670;5.808;2023-07-13T07:03:34;33.13;;;9.95;;
62584;SDS011;48643;51.670;5.808;2023-07-13T07:06:22;28.58;;;9.75;;
62584;SDS011;48643;51.670;5.808;2023-07-13T07:08:50;25.35;;;9.07;;
62584;SDS011;48643;51.670;5.808;2023-07-13T07:11:18;25.05;;;9.35;;
62584;SDS011;48643;51.670;5.808;2023-07-13T07:13:48;28.88;;;9.90;;
62584;SDS011;48643;51.670;5.808;2023-07-13T07:16:16;27.33;;;8.95;;
62584;SDS011;48643;51.670;5.808;2023-07-13T07:18:43;24.85;;;8.18;;
62584;SDS011;48643;51.670;5.808;2023-07-13T07:21:10;18.83;;;7.50;;
62584;SDS011;48643;51.670;5.808;2023-07-13T07:23:39;22.35;;;7.57;;
62584;SDS011;48643;51.670;5.808;2023-07-13T07:26:06;16.17;;;6.70;;
62584;SDS011;48643;51.670;5.808;2023-07-13T07:28:35;23.80;;;7.30;;
62584;SDS011;48643;51.670;5.808;2023-07-13T07:31:05;19.23;;;6.57;;
62584;SDS011;48643;51.670;5.808;2023-07-13T07:33:35;18.48;;;6.75;;
62584;SDS011;48643;51.670;5.808;2023-07-13T07:36:02;24.50;;;7.32;;
62584;SDS011;48643;51.670;5.808;2023-07-13T07:38:32;17.77;;;6.65;;
62584;SDS011;48643;51.670;5.808;2023-07-13T07:41:02;18.00;;;6.72;;
62584;SDS011;48643;51.670;5.808;2023-07-13T07:43:33;19.05;;;6.65;;
62584;SDS011;48643;51.670;5.808;2023-07-13T07:46:00;14.82;;;6.53;;
62584;SDS011;48643;51.670;5.808;2023-07-13T07:48:29;16.33;;;6.50;;
62584;SDS011;48643;51.670;5.808;2023-07-13T07:50:56;16.55;;;6.72;;
62584;SDS011;48643;51.670;5.808;2023-07-13T07:53:23;15.43;;;6.43;;
62584;SDS011;48643;51.670;5.808;2023-07-13T07:55:50;16.42;;;6.10;;
62584;SDS011;48643;51.670;5.808;2023-07-13T07:58:20;15.93;;;5.88;;
62584;SDS011;48643;51.670;5.808;2023-07-13T08:00:50;14.10;;;6.03;;
62584;SDS011;48643;51.670;5.808;2023-07-13T08:03:20;15.02;;;6.40;;
62584;SDS011;48643;51.670;5.808;2023-07-13T08:05:52;15.02;;;5.75;;
62584;SDS011;48643;51.670;5.808;2023-07-13T08:08:22;12.98;;;6.30;;
62584;SDS011;48643;51.670;5.808;2023-07-13T08:10:50;14.57;;;6.85;;
62584;SDS011;48643;51.670;5.808;2023-07-13T08:13:16;18.17;;;6.40;;
62584;SDS011;48643;51.670;5.808;2023-07-13T08:15:44;15.02;;;6.25;;
62584;SDS011;48643;51.670;5.808;2023-07-13T08:18:12;16.50;;;6.18;;
62584;SDS011;48643;51.670;5.808;2023-07-13T08:20:41;13.68;;;6.32;;
62584;SDS011;48643;51.670;5.808;2023-07-13T08:23:08;14.32;;;6.35;;
62584;SDS011;48643;51.670;5.808;2023-07-13T08:25:36;13.18;;;6.18;;
62584;SDS011;48643;51.670;5.808;2023-07-13T08:28:03;14.57;;;6.20;;
62584;SDS011;48643;51.670;5.808;2023-07-13T08:30:30;14.27;;;5.95;;
62584;SDS011;48643;51.670;5.808;2023-07-13T08:32:57;14.63;;;6.43;;
62584;SDS011;48643;51.670;5.808;2023-07-13T08:35:24;15.73;;;6.35;;
62584;SDS011;48643;51.670;5.808;2023-07-13T08:37:52;11.00;;;6.20;;
62584;SDS011;48643;51.670;5.808;2023-07-13T08:40:19;16.52;;;5.90;;
62584;SDS011;48643;51.670;5.808;2023-07-13T08:42:55;12.45;;;5.60;;
62584;SDS011;48643;51.670;5.808;2023-07-13T08:48:04;19.63;;;7.10;;
62584;SDS011;48643;51.670;5.808;2023-07-13T08:50:43;22.63;;;6.78;;
62584;SDS011;48643;51.670;5.808;2023-07-13T08:53:29;18.83;;;7.00;;
62584;SDS011;48643;51.670;5.808;2023-07-13T08:56:00;21.63;;;7.10;;
62584;SDS011;48643;51.670;5.808;2023-07-13T08:58:28;16.10;;;6.70;;
62584;SDS011;48643;51.670;5.808;2023-07-13T09:06:45;16.42;;;6.32;;
62584;SDS011;48643;51.670;5.808;2023-07-13T09:11:56;15.77;;;5.53;;
62584;SDS011;48643;51.670;5.808;2023-07-13T09:14:39;13.80;;;5.28;;
62584;SDS011;48643;51.670;5.808;2023-07-13T09:17:14;14.30;;;5.13;;
62584;SDS011;48643;51.670;5.808;2023-07-13T09:19:47;13.55;;;5.30;;
62584;SDS011;48643;51.670;5.808;2023-07-13T09:22:24;16.48;;;5.40;;
62584;SDS011;48643;51.670;5.808;2023-07-13T09:24:55;13.93;;;5.60;;
62584;SDS011;48643;51.670;5.808;2023-07-13T09:27:30;15.30;;;5.20;;
62584;SDS011;48643;51.670;5.808;2023-07-13T09:32:37;12.90;;;5.10;;
62584;SDS011;48643;51.670;5.808;2023-07-13T09:35:10;12.07;;;4.80;;
62584;SDS011;48643;51.670;5.808;2023-07-13T09:37:38;16.13;;;5.30;;
62584;SDS011;48643;51.670;5.808;2023-07-13T09:40:13;15.75;;;5.07;;
62584;SDS011;48643;51.670;5.808;2023-07-13T09:42:49;11.75;;;5.00;;
62584;SDS011;48643;51.670;5.808;2023-07-13T09:45:17;12.38;;;4.80;;
62584;SDS011;48643;51.670;5.808;2023-07-13T09:48:03;13.80;;;5.40;;
62584;SDS011;48643;51.670;5.808;2023-07-13T09:50:37;13.85;;;5.10;;
62584;SDS011;48643;51.670;5.808;2023-07-13T09:53:04;14.88;;;5.38;;
62584;SDS011;48643;51.670;5.808;2023-07-13T09:55:39;15.77;;;4.70;;
62584;SDS011;48643;51.670;5.808;2023-07-13T09:58:13;16.27;;;5.38;;
62584;SDS011;48643;51.670;5.808;2023-07-13T10:00:42;14.40;;;4.95;;
62584;SDS011;48643;51.670;5.808;2023-07-13T10:03:18;11.93;;;4.70;;
62584;SDS011;48643;51.670;5.808;2023-07-13T10:05:47;13.55;;;4.88;;
62584;SDS011;48643;51.670;5.808;2023-07-13T10:08:27;12.20;;;4.47;;
62584;SDS011;48643;51.670;5.808;2023-07-13T10:10:58;11.88;;;4.72;;
62584;SDS011;48643;51.670;5.808;2023-07-13T10:13:37;14.38;;;5.10;;
62584;SDS011;48643;51.670;5.808;2023-07-13T10:16:08;21.83;;;5.32;;
62584;SDS011;48643;51.670;5.808;2023-07-13T10:18:43;11.52;;;5.10;;
62584;SDS011;48643;51.670;5.808;2023-07-13T10:21:23;12.38;;;5.40;;
62584;SDS011;48643;51.670;5.808;2023-07-13T10:24:06;10.43;;;5.18;;
62584;SDS011;48643;51.670;5.808;2023-07-13T10:26:41;12.23;;;4.07;;
62584;SDS011;48643;51.670;5.808;2023-07-13T10:29:25;10.55;;;4.05;;
62584;SDS011;48643;51.670;5.808;2023-07-13T10:31:53;12.65;;;4.03;;
62584;SDS011;48643;51.670;5.808;2023-07-13T10:34:22;10.05;;;4.22;;
62584;SDS011;48643;51.670;5.808;2023-07-13T10:36:49;10.98;;;4.20;;
62584;SDS011;48643;51.670;5.808;2023-07-13T10:41:53;12.32;;;4.20;;
62584;SDS011;48643;51.670;5.808;2023-07-13T10:44:29;11.73;;;4.20;;
62584;SDS011;48643;51.670;5.808;2023-07-13T10:47:01;7.28;;;3.88;;
62584;SDS011;48643;51.670;5.808;2023-07-13T10:49:32;9.10;;;4.22;;
62584;SDS011;48643;51.670;5.808;2023-07-13T10:52:01;9.15;;;4.35;;
62584;SDS011;48643;51.670;5.808;2023-07-13T11:02:45;7.40;;;3.90;;
62584;SDS011;48643;51.670;5.808;2023-07-13T11:05:28;7.05;;;3.90;;
62584;SDS011;48643;51.670;5.808;2023-07-13T11:07:56;7.22;;;4.00;;
62584;SDS011;48643;51.670;5.808;2023-07-13T11:10:46;7.03;;;3.80;;
62584;SDS011;48643;51.670;5.808;2023-07-13T11:18:45;6.93;;;4.22;;
62584;SDS011;48643;51.670;5.808;2023-07-13T11:21:19;5.70;;;3.85;;
62584;SDS011;48643;51.670;5.808;2023-07-13T11:26:44;7.40;;;3.65;;
62584;SDS011;48643;51.670;5.808;2023-07-13T11:31:51;6.07;;;3.70;;
62584;SDS011;48643;51.670;5.808;2023-07-13T11:34:38;7.93;;;3.60;;
62584;SDS011;48643;51.670;5.808;2023-07-13T11:37:10;6.00;;;3.50;;
62584;SDS011;48643;51.670;5.808;2023-07-13T11:39:41;6.53;;;3.55;;
62584;SDS011;48643;51.670;5.808;2023-07-13T11:42:13;8.90;;;3.42;;
62584;SDS011;48643;51.670;5.808;2023-07-13T11:44:45;10.02;;;3.58;;
62584;SDS011;48643;51.670;5.808;2023-07-13T11:47:33;8.13;;;3.47;;
62584;SDS011;48643;51.670;5.808;2023-07-13T11:50:00;7.60;;;3.88;;
62584;SDS011;48643;51.670;5.808;2023-07-13T11:52:30;5.75;;;3.28;;
62584;SDS011;48643;51.670;5.808;2023-07-13T11:55:04;7.32;;;3.58;;
62584;SDS011;48643;51.670;5.808;2023-07-13T11:57:42;6.65;;;3.65;;
62584;SDS011;48643;51.670;5.808;2023-07-13T12:00:32;9.10;;;3.85;;
62584;SDS011;48643;51.670;5.808;2023-07-13T12:03:00;6.90;;;3.60;;
62584;SDS011;48643;51.670;5.808;2023-07-13T12:05:29;6.40;;;3.60;;
62584;SDS011;48643;51.670;5.808;2023-07-13T12:10:28;8.73;;;3.20;;
62584;SDS011;48643;51.670;5.808;2023-07-13T12:13:00;5.15;;;3.40;;
62584;SDS011;48643;51.670;5.808;2023-07-13T12:15:39;7.55;;;3.47;;
62584;SDS011;48643;51.670;5.808;2023-07-13T12:18:14;12.57;;;3.20;;
62584;SDS011;48643;51.670;5.808;2023-07-13T12:20:48;7.03;;;3.30;;
62584;SDS011;48643;51.670;5.808;2023-07-13T12:23:29;9.27;;;3.30;;
62584;SDS011;48643;51.670;5.808;2023-07-13T12:25:58;10.02;;;3.22;;
62584;SDS011;48643;51.670;5.808;2023-07-13T12:31:04;6.55;;;3.42;;
62584;SDS011;48643;51.670;5.808;2023-07-13T12:33:33;6.28;;;3.20;;
62584;SDS011;48643;51.670;5.808;2023-07-13T12:36:01;6.28;;;3.30;;
62584;SDS011;48643;51.670;5.808;2023-07-13T12:38:30;7.13;;;3.00;;
62584;SDS011;48643;51.670;5.808;2023-07-13T12:40:57;7.85;;;3.45;;
62584;SDS011;48643;51.670;5.808;2023-07-13T12:43:25;7.28;;;3.20;;
62584;SDS011;48643;51.670;5.808;2023-07-13T12:48:37;5.63;;;3.10;;
62584;SDS011;48643;51.670;5.808;2023-07-13T12:51:16;4.68;;;2.90;;
62584;SDS011;48643;51.670;5.808;2023-07-13T12:53:47;5.53;;;3.03;;
62584;SDS011;48643;51.670;5.808;2023-07-13T12:56:24;7.65;;;3.30;;
62584;SDS011;48643;51.670;5.808;2023-07-13T12:58:56;7.60;;;3.20;;
62584;SDS011;48643;51.670;5.808;2023-07-13T13:01:26;5.57;;;3.20;;
62584;SDS011;48643;51.670;5.808;2023-07-13T13:03:55;6.20;;;3.10;;
62584;SDS011;48643;51.670;5.808;2023-07-13T13:06:24;5.78;;;3.20;;
62584;SDS011;48643;51.670;5.808;2023-07-13T13:08:54;7.60;;;3.15;;
62584;SDS011;48643;51.670;5.808;2023-07-13T13:11:25;7.20;;;3.50;;
62584;SDS011;48643;51.670;5.808;2023-07-13T13:13:53;5.28;;;3.10;;
62584;SDS011;48643;51.670;5.808;2023-07-13T13:16:29;5.07;;;3.10;;
62584;SDS011;48643;51.670;5.808;2023-07-13T13:19:05;7.05;;;4.38;;
62584;SDS011;48643;51.670;5.808;2023-07-13T13:21:45;8.15;;;3.22;;
62584;SDS011;48643;51.670;5.808;2023-07-13T13:24:12;4.93;;;3.00;;
62584;SDS011;48643;51.670;5.808;2023-07-13T13:26:41;5.50;;;3.03;;
62584;SDS011;48643;51.670;5.808;2023-07-13T13:29:15;4.80;;;3.20;;
62584;SDS011;48643;51.670;5.808;2023-07-13T13:31:47;6.72;;;3.25;;
62584;SDS011;48643;51.670;5.808;2023-07-13T13:34:15;7.30;;;3.75;;
62584;SDS011;48643;51.670;5.808;2023-07-13T13:36:43;6.32;;;3.13;;
62584;SDS011;48643;51.670;5.808;2023-07-13T13:39:21;5.22;;;3.72;;
62584;SDS011;48643;51.670;5.808;2023-07-13T13:41:49;5.80;;;3.63;;
62584;SDS011;48643;51.670;5.808;2023-07-13T13:44:17;5.93;;;3.60;;
62584;SDS011;48643;51.670;5.808;2023-07-13T13:46:45;4.40;;;3.45;;
62584;SDS011;48643;51.670;5.808;2023-07-13T13:49:16;5.47;;;3.30;;
62584;SDS011;48643;51.670;5.808;2023-07-13T13:51:45;6.68;;;3.50;;
62584;SDS011;48643;51.670;5.808;2023-07-13T13:54:13;5.65;;;3.70;;
62584;SDS011;48643;51.670;5.808;2023-07-13T13:56:42;7.78;;;3.42;;
62584;SDS011;48643;51.670;5.808;2023-07-13T14:01:37;4.75;;;3.10;;
62584;SDS011;48643;51.670;5.808;2023-07-13T14:04:05;5.07;;;3.13;;
62584;SDS011;48643;51.670;5.808;2023-07-13T14:06:32;6.22;;;3.40;;
62584;SDS011;48643;51.670;5.808;2023-07-13T14:09:00;5.15;;;3.10;;
62584;SDS011;48643;51.670;5.808;2023-07-13T14:11:27;4.32;;;3.20;;
62584;SDS011;48643;51.670;5.808;2023-07-13T14:13:56;5.30;;;3.10;;
62584;SDS011;48643;51.670;5.808;2023-07-13T14:16:26;4.43;;;3.00;;
62584;SDS011;48643;51.670;5.808;2023-07-13T14:18:56;5.03;;;2.90;;
62584;SDS011;48643;51.670;5.808;2023-07-13T14:21:26;5.30;;;3.13;;
62584;SDS011;48643;51.670;5.808;2023-07-13T14:23:54;5.47;;;3.22;;
62584;SDS011;48643;51.670;5.808;2023-07-13T14:26:25;10.88;;;3.60;;
62584;SDS011;48643;51.670;5.808;2023-07-13T14:28:54;6.93;;;3.42;;
62584;SDS011;48643;51.670;5.808;2023-07-13T14:31:22;7.97;;;3.40;;
62584;SDS011;48643;51.670;5.808;2023-07-13T14:33:56;8.38;;;3.50;;
62584;SDS011;48643;51.670;5.808;2023-07-13T14:36:27;8.00;;;3.70;;
62584;SDS011;48643;51.670;5.808;2023-07-13T14:38:58;8.55;;;3.80;;
62584;SDS011;48643;51.670;5.808;2023-07-13T14:41:27;6.95;;;3.50;;
62584;SDS011;48643;51.670;5.808;2023-07-13T14:43:54;6.07;;;3.45;;
62584;SDS011;48643;51.670;5.808;2023-07-13T14:46:27;10.55;;;3.50;;
62584;SDS011;48643;51.670;5.808;2023-07-13T14:48:59;8.43;;;3.60;;
62584;SDS011;48643;51.670;5.808;2023-07-13T14:51:30;7.55;;;3.15;;
62584;SDS011;48643;51.670;5.808;2023-07-13T14:54:02;6.22;;;3.30;;
62584;SDS011;48643;51.670;5.808;2023-07-13T14:56:30;5.32;;;3.30;;
62584;SDS011;48643;51.670;5.808;2023-07-13T14:58:57;7.53;;;3.45;;
62584;SDS011;48643;51.670;5.808;2023-07-13T15:01:24;7.45;;;2.90;;
62584;SDS011;48643;51.670;5.808;2023-07-13T15:03:52;9.57;;;3.15;;
62584;SDS011;48643;51.670;5.808;2023-07-13T15:06:19;9.57;;;3.28;;
62584;SDS011;48643;51.670;5.808;2023-07-13T15:08:46;7.80;;;3.10;;
62584;SDS011;48643;51.670;5.808;2023-07-13T15:11:15;5.78;;;2.90;;
62584;SDS011;48643;51.670;5.808;2023-07-13T15:13:42;5.13;;;2.97;;
62584;SDS011;48643;51.670;5.808;2023-07-13T15:18:40;6.15;;;3.20;;
62584;SDS011;48643;51.670;5.808;2023-07-13T15:21:11;5.32;;;2.97;;
62584;SDS011;48643;51.670;5.808;2023-07-13T15:23:44;7.63;;;3.55;;
62584;SDS011;48643;51.670;5.808;2023-07-13T15:26:12;5.85;;;3.22;;
62584;SDS011;48643;51.670;5.808;2023-07-13T15:28:43;6.35;;;3.20;;
62584;SDS011;48643;51.670;5.808;2023-07-13T15:31:22;6.30;;;3.22;;
62584;SDS011;48643;51.670;5.808;2023-07-13T15:33:51;8.88;;;3.35;;
62584;SDS011;48643;51.670;5.808;2023-07-13T15:36:19;7.10;;;3.17;;
62584;SDS011;48643;51.670;5.808;2023-07-13T15:38:47;7.32;;;3.28;;
62584;SDS011;48643;51.670;5.808;2023-07-13T15:41:18;9.38;;;3.53;;
62584;SDS011;48643;51.670;5.808;2023-07-13T15:43:49;11.57;;;3.60;;
62584;SDS011;48643;51.670;5.808;2023-07-13T15:46:17;7.18;;;3.55;;
62584;SDS011;48643;51.670;5.808;2023-07-13T15:48:45;7.30;;;3.70;;